Main page
METAR-TAF:

METAR-TAF

Airports :

Sumburgh Airport

Sumburgh, Shetland, Scotland

latitude: 59-53N, longitude: 001-18W, elevation: 5 m

Current weather observation

The report was made 29 minutes ago, at 07:20 UTC
Wind 10 kt from the South
Temperature 14°C
Humidity 88%
Pressure 989 hPa
Visibility 10 km or more

METAR: EGPB 180720Z AUTO 18010KT 9999 BKN044/// 14/12 Q0989

Time: 08:49 (07:49 UTC)

Forecast

The report was made 2 hours and 51 minutes ago, at 04:58 UTC
Forecast valid from 18 at 06 UTC to 18 at 15 UTC
Wind 12 kt from the South
Visibility 10 km or more
Scattered clouds at a height of 4500 ft
Probability 40% :
Temporary
from 18 at 06 UTC to 18 at 15 UTC
Visibility: 8000 m
Broken clouds at a height of 1000 ft
light rain

TAF: EGPB 180458Z 1806/1815 18012KT 9999 SCT045 PROB40 TEMPO 1806/1815 8000 -RA BKN010

Weather observations and forecasts of more than 4000 airports (METAR and TAF reports).

The available stations are represented by yellow and red dots on the map.

Hover mouse over dot to see the name of the station.

Then click to see weather observations and forecasts.

To change the map : click on the green buttons with a black cross to zoom in, on the green button with a dash to zoom out, or on the green arrows for adjacent maps.


METAR-TAF: